Ariel, Washington
Current Conditions -  °F | °C
As of 1:55 PM on Friday 28 Nov 2014 (Local Time) from KKLS Reporting Station
Broken Clouds Broken Clouds  
Wind Chill: 54°   Ceiling: 5500
Heat Index: 54°   Visibility: 10mi
Dew Point: 48°   Wind: 9mph
Humidity: 82%   Direction: 160°SSE
Pressure: 29.48"   Gusts: NA
Location:  45.96°N, 122.57°W
Report Text: KKLS 282155Z 16008KT 10SM FEW030 SCT036 BKN055 12/09 A2948 RMK AO1 P0012
Loading
Personal Weather Stations






























Interactive Weather Map New forecast layout! Learn more

10-Day Weather Forecast

Advertisements
Track Severe Weather on mobile